KRTS Airport (Reno/Stead) Information

FAA: RTS - ICAO: KRTS

KRTS Airport Location

State Nevada
County Washoe
City Reno
KRTS Airport is 10 miles northwest of Reno, NV.
Latitude 39-40-05.4370N
Longitude 119-52-35.1827W
Elevation 5,050ft

KRTS Airport METARs

METAR KRTS 240915Z AUTO 03003KT 10SM CLR 10/M04 A3025 RMK AO2
Altimeter 30.25"
Temperature 10.0°C (50.0°F)
Wind 30° at 3KT
Clouds Skies are clear.
Visibility 10.0mi
Time observed: 2021-09-24T09:15:00Z

KRTS Airport Details

Status Operational
Activation August 1943
Ownership Public
Usage Public
Chart SAN FRANCISCO
ATC on-site No
Beacon schedule sunset-sunrise
Beacon color clear green

KRTS Airport Contacts

Owner RENO TAHOE ARPT AUTH
Owner address P.O. BOX 12490, RENO, NV 89510
Owner phone 775-328-6400
Manager SCOTT TAYLOR
Manager address 601 NEVADA HWY, BOULDER CITY, NV 89005
Manager phone (702) 293-8971

KRTS Airport (Reno/Stead) Radio Frequencies

KRTS (Airport) Radio Frequencies

UNICOM 122.7
Common traffic advisory frequency (CTAF) 122.7